This is the latest recevied weather packets stored in our database for station/object W6ORV. If no packets are shown the sender has not sent any weather packets the latest 10 day(s).
| Time | Temp. | Humidity | Pressure | Rain* | Wind** | Luminosity | Snow |
|---|---|---|---|---|---|---|---|
| 1777928614 | 17.22° C | 54% | 4299.6 hPa | 0 mm | - | 553 W/m² | - |
| 1777928311 | 16.67° C | 55% | 4299.7 hPa | 0 mm | - | 547 W/m² | - |
| 1777928009 | 16.11° C | 56% | 4299.7 hPa | 0 mm | - | 427 W/m² | - |
| 1777927707 | 16.11° C | 57% | 4299.8 hPa | 0 mm | - | 350 W/m² | - |
| 1777927405 | 16.11° C | 58% | 4299.6 hPa | 0 mm | - | 281 W/m² | - |
| 1777927104 | 16.67° C | 58% | 4299.5 hPa | 0 mm | - | 248 W/m² | - |
| 1777926801 | 16.67° C | 59% | 4299.6 hPa | 0 mm | - | 212 W/m² | - |
| 1777926496 | 16.67° C | 58% | 4299.5 hPa | 0 mm | - | 191 W/m² | - |
| 1777926194 | 16.67° C | 56% | 4299.2 hPa | 0 mm | - | 195 W/m² | - |
| 1777925890 | 16.67° C | 55% | 4299.4 hPa | 0 mm | - | 233 W/m² | - |
| 1777925588 | 17.22° C | 56% | 4299.3 hPa | 0 mm | - | 258 W/m² | - |
| 1777925285 | 17.78° C | 54% | 4299.6 hPa | 0 mm | - | 306 W/m² | - |
| 1777924981 | 17.22° C | 55% | 4299.4 hPa | 0 mm | - | 343 W/m² | - |
| 1777924678 | 17.22° C | 56% | 4299.3 hPa | 0 mm | - | 359 W/m² | - |
| 1777924373 | 17.78° C | 53% | 4299.3 hPa | 0 mm | - | 382 W/m² | - |
| 1777924071 | 18.33° C | 51% | 4299.3 hPa | 0 mm | - | 278 W/m² | - |
| 1777923767 | 18.33° C | 51% | 4299.4 hPa | 0 mm | - | 300 W/m² | - |
| 1777923463 | 17.22° C | 51% | 4299.5 hPa | 0 mm | - | 416 W/m² | - |
| 1777923161 | 17.78° C | 50% | 4299.5 hPa | 0 mm | - | 364 W/m² | - |
| 1777922859 | 18.89° C | 46% | 4299.6 hPa | 0 mm | - | 325 W/m² | - |
| 1777922557 | 19.44° C | 45% | 4299.6 hPa | 0 mm | - | 311 W/m² | - |
| 1777922255 | 18.33° C | 46% | 4299.5 hPa | 0 mm | - | 313 W/m² | - |
| 1777921952 | 18.89° C | 46% | 4299.4 hPa | 0 mm | - | 255 W/m² | - |
| 1777921647 | 18.89° C | 45% | 4299.3 hPa | 0 mm | - | 603 W/m² | - |
| 1777921344 | 18.89° C | 44% | 4299.7 hPa | 0 mm | - | 835 W/m² | - |
* Rain latest hour (hover to see other rain measurements)
** Current wind speed in m/s (hover to see current wind gust speed)